createdAt,value
2022-08-30T00:00:38.991Z,97099.00
2022-08-30T00:03:10.442Z,97101.00
2022-08-30T00:05:37.665Z,97094.00
2022-08-30T00:08:05.155Z,97096.00
2022-08-30T00:10:32.191Z,97099.00
2022-08-30T00:13:01.471Z,97091.00
2022-08-30T00:15:29.780Z,97100.00
2022-08-30T00:17:56.623Z,97087.00
2022-08-30T00:20:28.596Z,97098.00
2022-08-30T00:22:55.539Z,97097.00
2022-08-30T00:25:23.827Z,97104.00
2022-08-30T00:27:51.009Z,97100.00
2022-08-30T00:30:19.949Z,97094.00
2022-08-30T00:32:48.111Z,97090.00
2022-08-30T00:35:20.488Z,97089.00
2022-08-30T00:37:48.224Z,97089.00
2022-08-30T00:40:16.038Z,97085.00
2022-08-30T00:42:44.406Z,97094.00
2022-08-30T00:45:24.257Z,97089.00
2022-08-30T00:47:52.187Z,97089.00
2022-08-30T00:50:25.370Z,97094.00
2022-08-30T00:52:56.732Z,97101.00
2022-08-30T00:55:23.934Z,97094.00
2022-08-30T00:57:56.538Z,97093.00
2022-08-30T01:00:23.841Z,97097.00
2022-08-30T01:02:51.680Z,97090.00
2022-08-30T01:05:19.781Z,97094.00
2022-08-30T01:07:46.546Z,97094.00
2022-08-30T01:10:15.813Z,97097.00
2022-08-30T01:12:44.818Z,97090.00
2022-08-30T01:15:17.258Z,97095.00
2022-08-30T01:17:47.795Z,97089.00
2022-08-30T01:20:27.781Z,97097.00
2022-08-30T01:23:08.248Z,97097.00
2022-08-30T01:25:37.198Z,97094.00
2022-08-30T01:28:08.260Z,97096.00
2022-08-30T01:31:01.785Z,97103.00
2022-08-30T01:33:29.010Z,97100.00
2022-08-30T01:36:07.033Z,97102.00
2022-08-30T01:38:44.591Z,97099.00
2022-08-30T01:41:21.177Z,97089.00
2022-08-30T01:43:49.958Z,97100.00
2022-08-30T01:46:19.897Z,97100.00
2022-08-30T01:48:53.803Z,97098.00
2022-08-30T01:51:23.198Z,97101.00
2022-08-30T01:53:50.154Z,97101.00
2022-08-30T01:56:17.512Z,97100.00
2022-08-30T01:58:45.131Z,97104.00
2022-08-30T02:01:15.312Z,97102.00
2022-08-30T02:03:44.766Z,97103.00
2022-08-30T02:06:15.604Z,97107.00
2022-08-30T02:08:43.239Z,97104.00
2022-08-30T02:11:11.547Z,97102.00
2022-08-30T02:13:40.827Z,97100.00
2022-08-30T02:16:10.074Z,97094.00
2022-08-30T02:18:39.243Z,97092.00
2022-08-30T02:21:07.220Z,97094.00
2022-08-30T02:23:34.980Z,97088.00
2022-08-30T02:26:02.491Z,97089.00
2022-08-30T02:28:29.266Z,97093.00
2022-08-30T02:30:56.087Z,97088.00
2022-08-30T02:33:23.238Z,97086.00
2022-08-30T02:35:50.052Z,97083.00
2022-08-30T02:38:19.971Z,97073.00
2022-08-30T02:40:47.317Z,97074.00
2022-08-30T02:43:14.261Z,97068.00
2022-08-30T02:45:41.236Z,97068.00
2022-08-30T02:48:08.889Z,97066.00
2022-08-30T02:50:39.849Z,97068.00
2022-08-30T02:53:06.622Z,97064.00
2022-08-30T02:55:36.193Z,97058.00
2022-08-30T02:58:03.107Z,97055.00
2022-08-30T03:00:30.024Z,97056.00
2022-08-30T03:02:56.828Z,97060.00
2022-08-30T03:05:24.521Z,97064.00
2022-08-30T03:07:51.693Z,97052.00
2022-08-30T03:10:18.738Z,97065.00
2022-08-30T03:12:47.700Z,97060.00
2022-08-30T03:15:15.621Z,97058.00
2022-08-30T03:17:42.552Z,97059.00
2022-08-30T03:20:11.180Z,97063.00
2022-08-30T03:22:39.202Z,97062.00
2022-08-30T03:25:07.061Z,97060.00
2022-08-30T03:27:33.878Z,97058.00
2022-08-30T03:30:00.688Z,97063.00
2022-08-30T03:32:27.605Z,97067.00
2022-08-30T03:34:54.427Z,97064.00
2022-08-30T03:37:25.559Z,97071.00
2022-08-30T03:39:55.845Z,97065.00
2022-08-30T03:42:24.826Z,97068.00
2022-08-30T03:44:51.913Z,97065.00
2022-08-30T03:47:18.696Z,97059.00
2022-08-30T03:49:45.542Z,97056.00
2022-08-30T03:52:12.330Z,97060.00
2022-08-30T03:54:40.160Z,97062.00
2022-08-30T03:57:07.122Z,97062.00
2022-08-30T03:59:33.981Z,97055.00
2022-08-30T04:02:00.827Z,97062.00
2022-08-30T04:04:27.671Z,97066.00
2022-08-30T04:06:55.318Z,97075.00
2022-08-30T04:09:22.717Z,97077.00
2022-08-30T04:11:49.808Z,97075.00
2022-08-30T04:14:17.353Z,97078.00
2022-08-30T04:16:44.463Z,97082.00
2022-08-30T04:19:11.625Z,97081.00
2022-08-30T04:21:43.260Z,97075.00
2022-08-30T04:24:11.857Z,97079.00
2022-08-30T04:26:39.025Z,97074.00
2022-08-30T04:29:05.962Z,97070.00
2022-08-30T04:31:32.840Z,97070.00
2022-08-30T04:33:59.761Z,97063.00
2022-08-30T04:36:26.581Z,97066.00
2022-08-30T04:38:53.349Z,97068.00
2022-08-30T04:41:24.306Z,97073.00
2022-08-30T04:43:51.361Z,97069.00
2022-08-30T04:46:19.176Z,97070.00
2022-08-30T04:48:46.477Z,97064.00
2022-08-30T04:51:17.203Z,97066.00
2022-08-30T04:53:45.909Z,97065.00
2022-08-30T04:56:19.588Z,97066.00
2022-08-30T04:58:48.164Z,97076.00
2022-08-30T05:01:20.392Z,97076.00
2022-08-30T05:03:53.394Z,97080.00
2022-08-30T05:06:22.047Z,97080.00
2022-08-30T05:08:50.031Z,97086.00
2022-08-30T05:11:17.588Z,97088.00
2022-08-30T05:13:44.759Z,97092.00
2022-08-30T05:16:17.518Z,97090.00
2022-08-30T05:18:46.538Z,97097.00
2022-08-30T05:21:18.058Z,97091.00
2022-08-30T05:23:46.089Z,97092.00
2022-08-30T05:26:26.582Z,97092.00
2022-08-30T05:28:53.854Z,97102.00
2022-08-30T05:31:27.623Z,97102.00
2022-08-30T05:33:55.754Z,97094.00
2022-08-30T05:36:28.761Z,97093.00
2022-08-30T05:38:57.244Z,97093.00
2022-08-30T05:41:26.601Z,97091.00
2022-08-30T05:43:59.823Z,97104.00
2022-08-30T05:49:03.136Z,97098.00
2022-08-30T05:51:32.945Z,97104.00
2022-08-30T05:54:00.168Z,97102.00
2022-08-30T05:56:32.135Z,97101.00
2022-08-30T05:58:59.382Z,97096.00
2022-08-30T06:01:33.032Z,97098.00
2022-08-30T06:04:04.061Z,97105.00
2022-08-30T06:06:34.436Z,97100.00
2022-08-30T06:09:01.874Z,97092.00
2022-08-30T06:11:33.330Z,97094.00
2022-08-30T06:14:00.607Z,97097.00
2022-08-30T06:16:29.169Z,97097.00
2022-08-30T06:18:58.174Z,97098.00
2022-08-30T06:21:31.997Z,97093.00
2022-08-30T06:23:59.095Z,97097.00
2022-08-30T06:26:26.960Z,97098.00
2022-08-30T06:28:54.994Z,97100.00
2022-08-30T06:31:23.605Z,97094.00
2022-08-30T06:33:51.735Z,97100.00
2022-08-30T06:36:23.070Z,97099.00
2022-08-30T06:38:52.554Z,97098.00
2022-08-30T06:41:23.419Z,97100.00
2022-08-30T06:43:51.171Z,97096.00
2022-08-30T06:46:22.938Z,97109.00
2022-08-30T06:48:49.972Z,97107.00
2022-08-30T06:51:29.663Z,97094.00
2022-08-30T06:53:57.371Z,97094.00
2022-08-30T06:56:27.355Z,97098.00
2022-08-30T06:58:54.591Z,97108.00
2022-08-30T07:01:25.544Z,97103.00
2022-08-30T07:03:54.066Z,97100.00
2022-08-30T07:06:23.191Z,97108.00
2022-08-30T07:08:50.981Z,97097.00
2022-08-30T07:11:41.508Z,97096.00
2022-08-30T07:14:08.866Z,97105.00
2022-08-30T07:16:36.231Z,97097.00
2022-08-30T07:19:05.178Z,97095.00
2022-08-30T07:21:45.647Z,97095.00
2022-08-30T07:24:13.516Z,97099.00
2022-08-30T07:26:46.711Z,97100.00
2022-08-30T07:29:13.510Z,97092.00
2022-08-30T07:31:40.530Z,97084.00
2022-08-30T07:34:08.044Z,97086.00
2022-08-30T07:36:37.264Z,97091.00
2022-08-30T07:39:05.741Z,97089.00
2022-08-30T07:41:38.387Z,97093.00
2022-08-30T07:44:06.674Z,97092.00
2022-08-30T07:46:33.854Z,97094.00
2022-08-30T07:49:01.776Z,97094.00
2022-08-30T07:51:30.843Z,97095.00
2022-08-30T07:53:58.104Z,97095.00
2022-08-30T07:56:25.780Z,97099.00
2022-08-30T07:58:53.387Z,97098.00
2022-08-30T08:01:22.469Z,97093.00
2022-08-30T08:03:53.074Z,97096.00
2022-08-30T08:06:23.368Z,97102.00
2022-08-30T08:08:51.300Z,97092.00
2022-08-30T08:11:24.217Z,97099.00
2022-08-30T08:13:54.369Z,97101.00
2022-08-30T08:16:25.182Z,97106.00
2022-08-30T08:18:53.169Z,97102.00
2022-08-30T08:21:21.857Z,97104.00
2022-08-30T08:23:48.989Z,97106.00
2022-08-30T08:26:15.801Z,97105.00
2022-08-30T08:28:44.960Z,97109.00
2022-08-30T08:31:21.670Z,97106.00
2022-08-30T08:33:52.439Z,97110.00
2022-08-30T08:36:19.206Z,97111.00
2022-08-30T08:38:46.399Z,97104.00
2022-08-30T08:41:56.926Z,97100.00
2022-08-30T08:44:57.113Z,97103.00
2022-08-30T08:47:43.014Z,97112.00
2022-08-30T08:50:18.696Z,97112.00
2022-08-30T08:53:20.413Z,97108.00
2022-08-30T08:55:53.840Z,97096.00
2022-08-30T08:58:26.299Z,97098.00
2022-08-30T09:00:55.056Z,97093.00
2022-08-30T09:03:23.774Z,97095.00
2022-08-30T09:05:51.319Z,97091.00
2022-08-30T09:08:20.987Z,97086.00
2022-08-30T09:11:02.351Z,97090.00
2022-08-30T09:13:29.358Z,97093.00
2022-08-30T09:16:00.065Z,97093.00
2022-08-30T09:18:46.880Z,97092.00
2022-08-30T09:21:24.589Z,97090.00
2022-08-30T09:23:59.994Z,97089.00
2022-08-30T09:26:37.322Z,97086.00
2022-08-30T09:29:05.819Z,97088.00
2022-08-30T09:31:48.834Z,97081.00
2022-08-30T09:34:22.698Z,97082.00
2022-08-30T09:36:55.964Z,97081.00
2022-08-30T09:39:37.300Z,97078.00
2022-08-30T09:42:26.049Z,97081.00
2022-08-30T09:45:10.226Z,97072.00
2022-08-30T09:47:42.058Z,97074.00
2022-08-30T09:50:21.031Z,97073.00
2022-08-30T09:53:15.032Z,97064.00
2022-08-30T09:56:10.643Z,97066.00
2022-08-30T09:58:56.461Z,97066.00
2022-08-30T10:01:43.329Z,97063.00
2022-08-30T10:05:01.224Z,97063.00
2022-08-30T10:07:44.449Z,97065.00
2022-08-30T10:10:45.775Z,97064.00
2022-08-30T10:13:19.931Z,97066.00
2022-08-30T10:16:09.418Z,97067.00
2022-08-30T10:18:53.262Z,97065.00
2022-08-30T10:21:52.414Z,97058.00
2022-08-30T10:24:29.085Z,97051.00
2022-08-30T10:27:16.802Z,97063.00
2022-08-30T10:29:53.243Z,97055.00
2022-08-30T10:33:06.318Z,97059.00
2022-08-30T10:35:44.798Z,97060.00
2022-08-30T10:38:35.279Z,97060.00
2022-08-30T10:41:24.798Z,97059.00
2022-08-30T10:43:59.896Z,97060.00
2022-08-30T10:46:58.362Z,97061.00
2022-08-30T10:49:29.774Z,97061.00
2022-08-30T10:52:20.244Z,97062.00
2022-08-30T10:55:10.329Z,97061.00
2022-08-30T10:57:42.850Z,97070.00
2022-08-30T11:00:38.181Z,97060.00
2022-08-30T11:03:22.163Z,97064.00
2022-08-30T11:06:27.434Z,97068.00
2022-08-30T11:09:32.331Z,97061.00
2022-08-30T11:12:59.414Z,97061.00
2022-08-30T11:19:23.693Z,97062.00
2022-08-30T11:21:53.946Z,97053.00
2022-08-30T11:24:22.527Z,97053.00
2022-08-30T11:26:49.306Z,97051.00
2022-08-30T11:29:41.110Z,97050.00
2022-08-30T11:32:14.001Z,97044.00
2022-08-30T11:34:46.704Z,97045.00
2022-08-30T11:37:37.169Z,97048.00
2022-08-30T11:40:13.480Z,97040.00
2022-08-30T11:42:49.184Z,97043.00
2022-08-30T11:45:22.271Z,97042.00
2022-08-30T11:48:10.478Z,97035.00
2022-08-30T11:50:53.559Z,97030.00
2022-08-30T11:54:08.174Z,97030.00
2022-08-30T11:57:19.832Z,97032.00
2022-08-30T12:00:00.016Z,97028.00
2022-08-30T12:02:45.176Z,97022.00
2022-08-30T12:05:45.747Z,97023.00
2022-08-30T12:08:21.008Z,97023.00
2022-08-30T12:11:01.462Z,97019.00
2022-08-30T12:13:37.750Z,97012.00
2022-08-30T12:16:12.013Z,97009.00
2022-08-30T12:18:47.435Z,97012.00
2022-08-30T12:21:20.265Z,97008.00
2022-08-30T12:24:10.162Z,97007.00
2022-08-30T12:26:44.035Z,97004.00
2022-08-30T12:29:20.658Z,97012.00
2022-08-30T12:32:22.195Z,97001.00
2022-08-30T12:34:56.842Z,96998.00
2022-08-30T12:37:24.840Z,97003.00
2022-08-30T12:40:17.213Z,96998.00
2022-08-30T12:43:07.813Z,97002.00
2022-08-30T12:45:42.891Z,96990.00
2022-08-30T12:48:16.603Z,96987.00
2022-08-30T12:50:59.118Z,96984.00
2022-08-30T12:53:42.700Z,96979.00
2022-08-30T12:56:21.241Z,96980.00
2022-08-30T12:58:57.276Z,96979.00
2022-08-30T13:01:36.833Z,96972.00
2022-08-30T13:04:20.672Z,96967.00
2022-08-30T13:07:02.027Z,96968.00
2022-08-30T13:09:42.844Z,96967.00
2022-08-30T13:12:27.575Z,96958.00
2022-08-30T13:15:29.512Z,96955.00
2022-08-30T13:18:21.694Z,96953.00
2022-08-30T13:21:23.238Z,96949.00
2022-08-30T13:23:57.598Z,96946.00
2022-08-30T13:26:24.367Z,96931.00
2022-08-30T13:29:00.716Z,96934.00
2022-08-30T13:31:30.311Z,96927.00
2022-08-30T13:33:58.301Z,96924.00
2022-08-30T13:36:35.151Z,96916.00
2022-08-30T13:39:04.325Z,96913.00
2022-08-30T13:41:34.444Z,96902.00
2022-08-30T13:44:13.039Z,96901.00
2022-08-30T13:46:52.517Z,96900.00
2022-08-30T13:49:50.694Z,96898.00
2022-08-30T13:52:25.651Z,96907.00
2022-08-30T13:54:55.574Z,96911.00
2022-08-30T14:00:19.765Z,96907.00
2022-08-30T14:02:54.424Z,96913.00
2022-08-30T14:05:48.902Z,96909.00
2022-08-30T14:11:18.944Z,96906.00
2022-08-30T14:16:36.162Z,96896.00
2022-08-30T14:19:04.369Z,96897.00
2022-08-30T14:21:32.942Z,96892.00
2022-08-30T14:24:00.072Z,96892.00
2022-08-30T14:26:34.708Z,96895.00
2022-08-30T14:29:09.052Z,96893.00
2022-08-30T14:31:37.466Z,96890.00
2022-08-30T14:34:05.666Z,96893.00
2022-08-30T14:36:35.946Z,96893.00
2022-08-30T14:39:08.378Z,96886.00
2022-08-30T14:41:43.593Z,96895.00
2022-08-30T14:44:12.907Z,96894.00
2022-08-30T14:46:40.622Z,96888.00
2022-08-30T14:49:07.971Z,96902.00
2022-08-30T14:51:38.895Z,96907.00
2022-08-30T14:54:05.786Z,96911.00
2022-08-30T14:56:32.610Z,96901.00
2022-08-30T14:59:02.614Z,96901.00
2022-08-30T15:01:31.529Z,96898.00
2022-08-30T15:04:01.243Z,96896.00
2022-08-30T15:06:28.168Z,96897.00
2022-08-30T15:08:55.784Z,96888.00
2022-08-30T15:11:25.669Z,96888.00
2022-08-30T15:13:53.673Z,96883.00
2022-08-30T15:16:32.964Z,96883.00
2022-08-30T15:19:01.160Z,96866.00
2022-08-30T15:21:31.202Z,96878.00
2022-08-30T15:23:59.862Z,96879.00
2022-08-30T15:26:28.310Z,96878.00
2022-08-30T15:28:55.462Z,96871.00
2022-08-30T15:31:28.073Z,96871.00
2022-08-30T15:33:55.302Z,96879.00
2022-08-30T15:36:24.412Z,96867.00
2022-08-30T15:38:55.355Z,96856.00
2022-08-30T15:41:23.515Z,96866.00
2022-08-30T15:43:52.676Z,96868.00
2022-08-30T15:46:30.712Z,96868.00
2022-08-30T15:49:12.920Z,96876.00
2022-08-30T15:51:42.173Z,96875.00
2022-08-30T15:54:16.599Z,96876.00
2022-08-30T15:56:43.876Z,96871.00
2022-08-30T15:59:15.043Z,96868.00
2022-08-30T16:01:43.479Z,96875.00
2022-08-30T16:04:11.057Z,96874.00
2022-08-30T16:06:39.048Z,96872.00
2022-08-30T16:09:08.560Z,96873.00
2022-08-30T16:11:37.373Z,96869.00
2022-08-30T16:14:05.689Z,96881.00
2022-08-30T16:16:33.196Z,96871.00
2022-08-30T16:19:01.741Z,96876.00
2022-08-30T16:21:33.409Z,96881.00
2022-08-30T16:24:01.994Z,96878.00
2022-08-30T16:26:31.046Z,96876.00
2022-08-30T16:28:58.853Z,96880.00
2022-08-30T16:31:29.204Z,96878.00
2022-08-30T16:34:02.410Z,96868.00
2022-08-30T16:36:32.133Z,96873.00
2022-08-30T16:38:59.248Z,96864.00
2022-08-30T16:41:26.336Z,96863.00
2022-08-30T16:43:53.930Z,96862.00
2022-08-30T16:46:25.592Z,96866.00
2022-08-30T16:48:57.672Z,96858.00
2022-08-30T16:51:27.447Z,96865.00
2022-08-30T16:53:56.958Z,96867.00
2022-08-30T16:56:26.907Z,96866.00
2022-08-30T16:59:01.394Z,96871.00
2022-08-30T17:01:31.797Z,96871.00
2022-08-30T17:03:59.046Z,96865.00
2022-08-30T17:06:26.243Z,96870.00
2022-08-30T17:08:55.824Z,96864.00
2022-08-30T17:11:24.230Z,96874.00
2022-08-30T17:13:51.277Z,96874.00
2022-08-30T17:16:22.731Z,96871.00
2022-08-30T17:18:59.507Z,96884.00
2022-08-30T17:21:28.991Z,96879.00
2022-08-30T17:24:01.435Z,96881.00
2022-08-30T17:26:32.983Z,96887.00
2022-08-30T17:29:00.080Z,96884.00
2022-08-30T17:31:30.608Z,96885.00
2022-08-30T17:34:03.474Z,96890.00
2022-08-30T17:36:32.788Z,96888.00
2022-08-30T17:39:10.467Z,96888.00
2022-08-30T17:41:45.332Z,96886.00
2022-08-30T17:44:25.640Z,96893.00
2022-08-30T17:46:54.317Z,96898.00
2022-08-30T17:49:21.397Z,96889.00
2022-08-30T17:51:55.506Z,96895.00
2022-08-30T17:54:24.351Z,96890.00
2022-08-30T17:56:52.985Z,96884.00
2022-08-30T17:59:20.243Z,96889.00
2022-08-30T18:01:54.758Z,96892.00
2022-08-30T18:04:24.856Z,96895.00
2022-08-30T18:06:52.609Z,96895.00
2022-08-30T18:09:33.911Z,96898.00
2022-08-30T18:12:26.986Z,96902.00
2022-08-30T18:15:31.906Z,96901.00
2022-08-30T18:18:32.476Z,96901.00
2022-08-30T18:21:32.312Z,96906.00
2022-08-30T18:27:20.415Z,96905.00
2022-08-30T18:30:34.746Z,96904.00
2022-08-30T18:33:49.958Z,96899.00
2022-08-30T18:36:16.877Z,96890.00
2022-08-30T18:38:44.673Z,96897.00
2022-08-30T18:41:16.051Z,96895.00
2022-08-30T18:43:44.765Z,96896.00
2022-08-30T18:46:15.484Z,96898.00
2022-08-30T18:48:45.816Z,96900.00
2022-08-30T18:51:19.986Z,96901.00
2022-08-30T18:53:48.598Z,96903.00
2022-08-30T18:56:16.713Z,96900.00
2022-08-30T18:58:47.413Z,96908.00
2022-08-30T19:01:20.708Z,96910.00
2022-08-30T19:03:49.493Z,96904.00
2022-08-30T19:06:16.576Z,96914.00
2022-08-30T19:08:45.890Z,96920.00
2022-08-30T19:11:13.123Z,96921.00
2022-08-30T19:13:40.043Z,96916.00
2022-08-30T19:16:07.375Z,96922.00
2022-08-30T19:18:34.970Z,96930.00
2022-08-30T19:21:04.576Z,96934.00
2022-08-30T19:23:34.407Z,96937.00
2022-08-30T19:26:01.394Z,96957.00
2022-08-30T19:28:28.427Z,96962.00
2022-08-30T19:30:55.201Z,96973.00
2022-08-30T19:33:22.108Z,96976.00
2022-08-30T19:35:51.314Z,96979.00
2022-08-30T19:38:18.660Z,96969.00
2022-08-30T19:40:49.968Z,96958.00
2022-08-30T19:43:19.390Z,96954.00
2022-08-30T19:45:46.242Z,96980.00
2022-08-30T19:48:13.726Z,96992.00
2022-08-30T19:50:41.942Z,96991.00
2022-08-30T19:53:09.022Z,96998.00
2022-08-30T19:55:37.452Z,96999.00
2022-08-30T19:58:04.609Z,96992.00
2022-08-30T20:00:31.693Z,97000.00
2022-08-30T20:03:01.487Z,97002.00
2022-08-30T20:05:30.274Z,96997.00
2022-08-30T20:07:58.355Z,97003.00
2022-08-30T20:10:26.132Z,96998.00
2022-08-30T20:12:52.996Z,97012.00
2022-08-30T20:15:23.622Z,97014.00
2022-08-30T20:18:05.897Z,97012.00
2022-08-30T20:20:37.797Z,97016.00
2022-08-30T20:23:06.082Z,97018.00
2022-08-30T20:25:33.715Z,97016.00
2022-08-30T20:28:01.264Z,97015.00
2022-08-30T20:30:28.064Z,97019.00
2022-08-30T20:32:54.888Z,97024.00
2022-08-30T20:35:23.618Z,97028.00
2022-08-30T20:37:50.942Z,97023.00
2022-08-30T20:40:17.854Z,97026.00
2022-08-30T20:42:46.215Z,97025.00
2022-08-30T20:45:16.537Z,97035.00
2022-08-30T20:47:44.065Z,97030.00
2022-08-30T20:50:15.221Z,97040.00
2022-08-30T20:52:42.784Z,97046.00
2022-08-30T20:55:10.268Z,97060.00
2022-08-30T20:57:37.441Z,97068.00
2022-08-30T21:00:08.937Z,97079.00
2022-08-30T21:02:38.401Z,97081.00
2022-08-30T21:05:15.254Z,97085.00
2022-08-30T21:07:43.313Z,97097.00
2022-08-30T21:10:11.591Z,97094.00
2022-08-30T21:12:39.233Z,97092.00
2022-08-30T21:15:33.988Z,97102.00
2022-08-30T21:17:54.313Z,97106.00
2022-08-30T21:20:21.216Z,97110.00
2022-08-30T21:22:47.999Z,97113.00
2022-08-30T21:25:14.943Z,97122.00
2022-08-30T21:27:43.594Z,97131.00
2022-08-30T21:30:13.162Z,97128.00
2022-08-30T21:32:40.591Z,97133.00
2022-08-30T21:35:27.325Z,97129.00
2022-08-30T21:37:54.156Z,97139.00
2022-08-30T21:40:21.404Z,97136.00
2022-08-30T21:42:48.362Z,97132.00
2022-08-30T21:45:15.534Z,97140.00
2022-08-30T21:47:42.685Z,97140.00
2022-08-30T21:50:10.101Z,97146.00
2022-08-30T21:52:36.880Z,97143.00
2022-08-30T21:55:04.906Z,97140.00
2022-08-30T21:57:32.848Z,97144.00
2022-08-30T21:59:59.648Z,97144.00
2022-08-30T22:02:26.526Z,97148.00
2022-08-30T22:04:53.375Z,97150.00
2022-08-30T22:07:20.404Z,97155.00
2022-08-30T22:09:47.219Z,97155.00
2022-08-30T22:12:14.041Z,97157.00
2022-08-30T22:14:41.264Z,97165.00
2022-08-30T22:17:08.187Z,97173.00
2022-08-30T22:19:35.073Z,97177.00
2022-08-30T22:22:02.091Z,97184.00
2022-08-30T22:24:31.975Z,97180.00
2022-08-30T22:27:00.680Z,97185.00
2022-08-30T22:29:28.158Z,97184.00
2022-08-30T22:31:55.177Z,97188.00
2022-08-30T22:34:22.882Z,97197.00
2022-08-30T22:36:49.650Z,97190.00
2022-08-30T22:39:16.522Z,97193.00
2022-08-30T22:41:44.132Z,97201.00
2022-08-30T22:44:11.673Z,97193.00
2022-08-30T22:46:40.087Z,97196.00
2022-08-30T22:49:09.382Z,97197.00
2022-08-30T22:51:37.936Z,97189.00
2022-08-30T22:54:07.628Z,97191.00
2022-08-30T22:56:36.697Z,97185.00
2022-08-30T22:59:05.692Z,97174.00
2022-08-30T23:01:39.500Z,97184.00
2022-08-30T23:04:08.450Z,97181.00
2022-08-30T23:06:35.631Z,97175.00
2022-08-30T23:09:03.796Z,97179.00
2022-08-30T23:11:33.114Z,97175.00
2022-08-30T23:14:01.952Z,97168.00
2022-08-30T23:16:29.173Z,97165.00
2022-08-30T23:18:56.109Z,97161.00
2022-08-30T23:21:26.932Z,97161.00
2022-08-30T23:24:13.806Z,97155.00
2022-08-30T23:27:00.574Z,97167.00
2022-08-30T23:29:46.702Z,97172.00
2022-08-30T23:32:32.334Z,97167.00
2022-08-30T23:35:17.682Z,97170.00
2022-08-30T23:38:05.444Z,97166.00
2022-08-30T23:40:50.667Z,97170.00
2022-08-30T23:43:36.011Z,97167.00
2022-08-30T23:46:21.258Z,97171.00
2022-08-30T23:49:07.871Z,97173.00
2022-08-30T23:51:55.431Z,97174.00
2022-08-30T23:54:42.110Z,97164.00
2022-08-30T23:57:27.118Z,97164.00
